Strona główna
METAR-TAF:

METAR-TAF

Lotnisko :

Port lotniczy Ndżamena

Ndżamena, Czad

Szerokość geograficzna: 12-08N, Długość geograficzna: 015-02E, wysokość: 295 m

Aktualna obserwacja pogody

Raport powstał 22 minut temu, godzina 09:00 UTC
Wiatr 6 kt od północny wschód, zmienny między północny wschód i południowy wschód
Temperatura 32°C
Wilgotność 13%
Ciśnienie 1011 hPa
Widzialność: 5000 m
pył

METAR: FTTJ 230900Z 04006KT 040V130 5000 DU NSC 32/00 Q1011 NOSIG

czas: 10:22 (09:22 UTC)

Prognoza

Raport powstał 4 godziny i 22 minut temu, godzina 05:00 UTC
Prognoza ważna od 23 godzina 06 UTC do 24 godzina 12 UTC
Wiatr 8 kt od północ
Widzialność 10 km lub więcej
Brak chmur poniżej 1500 m i brak chmur cumulonimbus
Przejściowo
od 23 godzina 16 UTC do 23 godzina 19 UTC
Widzialność: 4000 m
zmętnienie
Przejściowo
od 24 godzina 04 UTC do 24 godzina 07 UTC
Widzialność: 4000 m
zmętnienie

TAF: FTTJ 230500Z 2306/2412 36008KT CAVOK TEMPO 2316/2319 4000 HZ TEMPO 2404/2407 4000 HZ

Obserwacja i prognoza pogody dla ponad 4000 lotnisk (raport METAR i TAF).

Dostępne stacje oznaczono żółtymi i czerwonymi punktami na mapie.

Najedź kursorem aby zobaczyć nazwę stacji.

Kliknij aby zobaczyć obserwacje i prognozy pogody.

Aby zmienić mapę: kliknij na zielony przycisk z czarnym krzyżykiem, aby powiększyć; na zielony przycisk z myślnikiem, aby pomniejszyć; na zielone strzałki, aby przejść do map sąsiednich.


METAR-TAF: